Whiteside, TN (37396)

6:56 PM CST on December 19, 2014 (GMT -0600)
TN River Valley Gorge | Change Station
CLOSE
Current Station
Personal Weather Station
Location: Chattanooga, TN
Elevation: 640 ft
Nearby Weather Stations

Elev 640 ft 35.12 °N, 85.39 °W | Updated 3 seconds ago

Mostly Cloudy
Mostly Cloudy
43.0 °F
Feels Like 43 °F
N
0.7
Wind Variable Wind from NW
Gusts 3.1 mph

Today
High -- | Low -- °F
--% Chance of Precip.
Yesterday
High -- | Low -- °F
Precip. -- in
6:44 AM 4:32 PM
Waning Crescent, 5% visible
Pressure 30.18 in
Visibility 10.0 miles
Clouds Mostly Cloudy 13000 ft
Mostly Cloudy 20000 ft
Mostly Cloudy 25000 ft
Windchill 43 °F
Dew Point 30 °F
Humidity 60%
Rainfall 0.00 in
Snow Depth Not available.
UV 0 out of 12
Pollen .10 out of 12
Air Quality Not available.
Flu Activity Not available.
METAR KCHA 200053Z 01007KT 10SM BKN130 BKN200 BKN250 07/M01 A3017 RMK AO2 SLP220 T00671011

More Conditions Fewer Conditions

Pressure 30.18 in
Visibility 10.0 miles
Clouds Mostly Cloudy 13000 ft
Mostly Cloudy 20000 ft
Mostly Cloudy 25000 ft
Windchill 43 °F
Dew Point 30 °F
Humidity 60%
Rainfall 0.00 in
Snow Depth Not available.
UV 0 out of 12
Pollen .10 out of 12
Air Quality Not available.
Flu Activity Not available.
METAR KCHA 200053Z 01007KT 10SM BKN130 BKN200 BKN250 07/M01 A3017 RMK AO2 SLP220 T00671011

More Conditions Fewer Conditions

10-Day Weather Forecast

Almanac

Astronomy

Dec. 19, 2014 Rise Set
Actual Time
Civil Twilight
Nautical Twilight
Astronomical Twilight
Moon
Length of Visible Light
Length of Day
Tomorrow will be .
, % of the Moon is Illuminated

Today's Extremes

State Highs State Lows

Community

WunderPhotos

Upload Photos

1,779,093 photos uploaded!

WunderBlogs® & News

Nearby

Air Quality

  Air Quality AQ Index Pollutant
Not available.

Snow Depth

Station Depth Elevation

Earthquake Activity

City Distance Mag. Time & Date
Minimum magnitude displayed is 2.5.

Coastal Water Temperatures

Place Temperature

Nearby Weather Stations